Terminal Aerodrome Forecast
Issued by NWS

Home | Current Version | Previous Version | Text Only | Print | Product List | Glossary On
Versions: 1 2 3 4 5 6 7 8 9 10 11 12 13 14 15 16
000
FTUS41 KLWX 272339
TAFMTN
TAF
KMTN 272339Z 2800/2824 19008KT P6SM BKN250
     FM280500 16004KT 5SM BR BKN110
     FM280900 17004KT 2SM BR BKN070
     FM281200 VRB03KT P6SM BKN090
     FM281800 17007KT P6SM SCT050 BKN100
     FM282300 VRB03KT P6SM SCT110
      AMD NOT SKED 2802/2812=

USA.gov is the U.S. government's official web portal to all federal, state and local government web resources and services.